Time;durP1;ratioP1;P1;durP2;ratioP2;P2;SDS_P1;SDS_P2;PMS_P1;PMS_P2;Temp;Humidity;BMP_temperature;BMP_pressure;BME280_temperature;BME280_humidity;BME280_pressure;Samples;Min_cycle;Max_cycle;Signal;HPM_P1;HPM_P2
2023/06/22 00:00:11;;;;;;;3.85;2.22;;;26.70;65.50;;;;;;2478656;55;21092;-72
2023/06/22 00:02:38;;;;;;;5.32;3.12;;;26.60;65.50;;;;;;2478111;55;20960;-74
2023/06/22 00:05:05;;;;;;;4.12;2.92;;;26.60;65.70;;;;;;2478079;55;20937;-72
2023/06/22 00:07:31;;;;;;;4.72;2.67;;;26.60;65.80;;;;;;2471929;55;20986;-71
2023/06/22 00:09:57;;;;;;;3.67;2.50;;;26.60;65.90;;;;;;2243960;56;21013;-72
2023/06/22 00:12:24;;;;;;;4.05;2.65;;;26.50;65.90;;;;;;2478003;55;21235;-71
2023/06/22 00:14:58;;;;;;;3.83;2.42;;;26.50;66.00;;;;;;2477827;55;20972;-73
2023/06/22 00:17:25;;;;;;;4.25;2.78;;;26.50;66.00;;;;;;2475740;55;20969;-71
2023/06/22 00:19:53;;;;;;;3.70;2.15;;;26.40;65.90;;;;;;2478274;55;21406;-71
2023/06/22 00:22:27;;;;;;;5.72;2.87;;;26.40;66.00;;;;;;2476283;55;20989;-72
2023/06/22 00:24:57;;;;;;;4.10;2.50;;;26.40;66.10;;;;;;2477540;55;21044;-71
2023/06/22 00:27:25;;;;;;;3.65;2.40;;;26.40;66.10;;;;;;2477679;55;20982;-70
2023/06/22 00:29:51;;;;;;;3.80;2.60;;;26.30;66.30;;;;;;2477859;55;20992;-73
2023/06/22 00:32:20;;;;;;;4.53;2.78;;;26.30;66.30;;;;;;2251427;56;20972;-72
2023/06/22 00:34:47;;;;;;;4.25;2.80;;;26.30;66.30;;;;;;2477800;55;20980;-73
2023/06/22 00:37:16;;;;;;;3.85;2.80;;;26.30;66.40;;;;;;2251563;56;20945;-72
2023/06/22 00:39:44;;;;;;;3.95;2.72;;;26.30;66.30;;;;;;2220605;56;20996;-71
2023/06/22 00:42:10;;;;;;;4.07;2.75;;;26.20;66.40;;;;;;2249233;56;21495;-72
2023/06/22 00:44:36;;;;;;;4.25;2.60;;;26.30;66.50;;;;;;2468938;55;20941;-72
2023/06/22 00:47:03;;;;;;;3.53;2.30;;;26.20;66.40;;;;;;2251305;56;21218;-72
2023/06/22 00:49:30;;;;;;;4.22;2.47;;;26.20;66.40;;;;;;2251271;56;20936;-72
2023/06/22 00:51:57;;;;;;;3.37;2.20;;;26.20;66.50;;;;;;2468631;55;21313;-71
2023/06/22 00:54:24;;;;;;;4.00;2.62;;;26.10;66.40;;;;;;2471363;55;20973;-72
2023/06/22 00:56:54;;;;;;;5.80;2.78;;;26.10;66.40;;;;;;2477744;55;20976;-72
2023/06/22 00:59:20;;;;;;;4.53;3.17;;;26.10;66.40;;;;;;2251136;56;20960;-72
2023/06/22 01:01:47;;;;;;;4.47;2.75;;;26.10;66.50;;;;;;2250051;56;21446;-74
2023/06/22 01:04:14;;;;;;;3.37;2.28;;;26.00;66.60;;;;;;2248359;56;20962;-72
2023/06/22 01:07:05;;;;;;;4.40;2.60;;;26.00;66.60;;;;;;2469121;55;21016;-70
2023/06/22 01:09:35;;;;;;;4.10;2.55;;;26.00;65.80;;;;;;2477749;55;21040;-73
2023/06/22 01:12:04;;;;;;;4.03;2.50;;;26.00;66.40;;;;;;2251049;56;20989;-73
2023/06/22 01:14:55;;;;;;;4.53;2.80;;;25.90;66.60;;;;;;2253074;56;21087;-73
2023/06/22 01:17:21;;;;;;;6.60;3.30;;;25.90;66.30;;;;;;2467790;55;21576;-73
2023/06/22 01:20:18;;;;;;;4.00;2.40;;;25.90;66.60;;;;;;2250334;56;21515;-71
2023/06/22 01:28:48;;;;;;;4.10;2.80;;;25.80;65.80;;;;;;2477483;55;21541;-74
2023/06/22 01:31:17;;;;;;;3.58;1.60;;;25.80;66.10;;;;;;2478418;55;20945;-72
2023/06/22 01:33:46;;;;;;;3.75;1.92;;;25.70;66.80;;;;;;2251285;56;20997;-73
2023/06/22 01:36:13;;;;;;;3.28;1.77;;;25.70;66.80;;;;;;2471934;55;21039;-73
2023/06/22 01:38:41;;;;;;;3.20;2.00;;;25.70;67.00;;;;;;2468796;55;21033;-72
2023/06/22 01:41:07;;;;;;;3.50;1.80;;;25.60;67.00;;;;;;2253258;56;21029;-71
2023/06/22 01:43:37;;;;;;;4.57;1.90;;;25.50;67.00;;;;;;2464861;55;21799;-71
2023/06/22 01:46:04;;;;;;;4.45;2.35;;;25.50;67.00;;;;;;2478100;55;21036;-73
2023/06/22 01:48:33;;;;;;;4.15;2.67;;;25.50;67.00;;;;;;2253477;56;20957;-73
2023/06/22 01:51:00;;;;;;;4.03;2.70;;;25.50;66.90;;;;;;2240675;57;21023;-71
2023/06/22 01:53:26;;;;;;;4.05;2.67;;;25.50;67.20;;;;;;2477880;55;21827;-73
2023/06/22 01:55:55;;;;;;;3.78;2.47;;;25.40;67.20;;;;;;2248447;56;21413;-70
2023/06/22 01:58:26;;;;;;;4.80;2.67;;;25.40;67.30;;;;;;2471551;55;20932;-71
2023/06/22 02:00:57;;;;;;;4.28;2.85;;;25.40;67.30;;;;;;2478205;55;20973;-73
2023/06/22 02:03:28;;;;;;;4.12;2.70;;;25.40;67.30;;;;;;2477722;55;21020;-72
2023/06/22 02:05:58;;;;;;;4.03;2.50;;;25.40;67.30;;;;;;2244317;56;21019;-71
2023/06/22 02:08:27;;;;;;;4.00;2.55;;;25.40;67.40;;;;;;2474997;55;20957;-71
2023/06/22 02:10:54;;;;;;;4.30;2.72;;;25.30;67.40;;;;;;2478197;55;20956;-73
2023/06/22 02:13:21;;;;;;;3.85;2.70;;;25.30;67.40;;;;;;2252059;56;21478;-72
2023/06/22 02:15:50;;;;;;;4.90;2.78;;;25.30;67.40;;;;;;2477763;55;20973;-72
2023/06/22 02:18:16;;;;;;;4.45;2.95;;;25.30;67.40;;;;;;2251941;56;21078;-71
2023/06/22 02:20:44;;;;;;;4.32;2.87;;;25.30;67.60;;;;;;2476876;55;20998;-72
2023/06/22 02:23:10;;;;;;;7.68;3.28;;;25.30;67.60;;;;;;2478345;55;21104;-70
2023/06/22 02:25:36;;;;;;;4.60;2.95;;;25.30;67.70;;;;;;2477866;55;20996;-71
2023/06/22 02:28:04;;;;;;;4.37;2.87;;;25.20;67.60;;;;;;2478282;55;21009;-71
2023/06/22 02:30:30;;;;;;;4.85;2.80;;;25.20;67.70;;;;;;2251831;56;20941;-72
2023/06/22 02:33:00;;;;;;;5.78;3.30;;;25.20;67.70;;;;;;2251470;56;20969;-72
2023/06/22 02:35:31;;;;;;;4.47;2.90;;;25.20;67.70;;;;;;2251791;56;21032;-72
2023/06/22 02:38:00;;;;;;;4.55;3.03;;;25.20;67.70;;;;;;2251545;56;20992;-72
2023/06/22 02:40:29;;;;;;;3.83;2.80;;;25.20;67.70;;;;;;2478510;55;21025;-71
2023/06/22 02:42:58;;;;;;;4.07;2.70;;;25.20;67.90;;;;;;2251705;56;20980;-71
2023/06/22 02:45:24;;;;;;;5.00;2.92;;;25.20;67.90;;;;;;2252041;56;20957;-72
2023/06/22 02:47:50;;;;;;;5.60;3.17;;;25.10;67.80;;;;;;2477759;55;20980;-73
2023/06/22 02:50:17;;;;;;;4.50;2.95;;;25.10;67.80;;;;;;2477658;55;21028;-72
2023/06/22 02:52:43;;;;;;;5.47;2.47;;;25.10;67.90;;;;;;2251218;56;20997;-72
2023/06/22 02:55:10;;;;;;;3.87;2.40;;;25.10;67.90;;;;;;2251429;56;21496;-72
2023/06/22 02:57:36;;;;;;;4.70;2.87;;;25.10;67.90;;;;;;2251053;56;20933;-72
2023/06/22 03:00:16;;;;;;;4.87;2.85;;;25.00;67.80;;;;;;2477811;55;21046;-72
2023/06/22 03:02:49;;;;;;;5.62;3.00;;;25.10;67.80;;;;;;2477460;55;20948;-71
2023/06/22 03:05:17;;;;;;;6.00;3.20;;;25.10;67.60;;;;;;2477726;55;20965;-71
2023/06/22 03:07:44;;;;;;;5.93;3.05;;;25.00;68.00;;;;;;2250464;56;20986;-71
2023/06/22 03:10:11;;;;;;;5.32;2.60;;;25.00;68.00;;;;;;2472506;55;21055;-71
2023/06/22 03:12:38;;;;;;;4.70;2.62;;;25.00;68.00;;;;;;2243161;56;21404;-72
2023/06/22 03:15:15;;;;;;;4.28;2.55;;;25.00;68.00;;;;;;2477559;55;20965;-72
2023/06/22 03:17:42;;;;;;;5.55;2.85;;;25.00;67.60;;;;;;2476826;55;21060;-71
2023/06/22 03:20:10;;;;;;;3.97;2.42;;;25.00;68.00;;;;;;2477542;55;20945;-73
2023/06/22 03:22:46;;;;;;;5.40;3.28;;;24.90;67.90;;;;;;2250771;56;21008;-73
2023/06/22 03:25:15;;;;;;;4.57;3.17;;;25.00;67.50;;;;;;2251651;56;20937;-72
2023/06/22 03:27:41;;;;;;;4.43;3.15;;;24.90;67.70;;;;;;2250758;56;21041;-71
2023/06/22 03:30:09;;;;;;;5.57;3.25;;;24.90;67.70;;;;;;2251567;56;20969;-72
2023/06/22 03:32:35;;;;;;;5.95;3.10;;;24.80;67.60;;;;;;2477583;55;21787;-70
2023/06/22 03:35:02;;;;;;;5.30;3.12;;;24.80;67.80;;;;;;2250415;56;21588;-72
2023/06/22 03:37:29;;;;;;;5.47;3.45;;;24.80;67.90;;;;;;2478562;55;20989;-71
2023/06/22 03:39:58;;;;;;;6.93;3.20;;;24.80;68.00;;;;;;2477273;55;21625;-72
2023/06/22 03:42:24;;;;;;;4.68;2.90;;;24.80;67.90;;;;;;2478119;55;20996;-74
2023/06/22 03:44:50;;;;;;;6.25;3.20;;;24.70;68.00;;;;;;2477103;55;20933;-72
2023/06/22 03:47:18;;;;;;;5.00;3.50;;;24.70;68.00;;;;;;2478364;55;21048;-70
2023/06/22 03:49:47;;;;;;;6.40;3.25;;;24.70;68.00;;;;;;2250425;56;21035;-69
2023/06/22 03:52:14;;;;;;;5.28;3.45;;;24.70;68.00;;;;;;2437751;56;21021;-70
2023/06/22 03:54:40;;;;;;;5.32;2.83;;;24.60;67.80;;;;;;2251576;56;21919;-71
2023/06/22 03:57:12;;;;;;;4.43;3.05;;;24.60;67.90;;;;;;2477026;55;20981;-70
2023/06/22 03:59:39;;;;;;;5.15;3.08;;;24.60;67.70;;;;;;2478574;55;20956;-73
2023/06/22 04:02:06;;;;;;;4.70;3.20;;;24.60;67.90;;;;;;2252154;56;20976;-71
2023/06/22 04:04:33;;;;;;;4.53;3.17;;;24.50;67.80;;;;;;2252220;56;21029;-72
2023/06/22 04:06:59;;;;;;;5.20;3.22;;;24.50;67.80;;;;;;2477874;55;20956;-71
2023/06/22 04:09:27;;;;;;;4.82;3.15;;;24.50;68.00;;;;;;2478462;55;21762;-72
2023/06/22 04:11:53;;;;;;;5.37;3.37;;;24.40;67.90;;;;;;2477762;55;21449;-72
2023/06/22 04:14:20;;;;;;;4.50;2.92;;;24.40;68.00;;;;;;2478685;55;21068;-73
2023/06/22 04:20:16;;;;;;;7.18;3.03;;;24.40;67.50;;;;;;2459303;56;21065;-72
2023/06/22 04:22:45;;;;;;;7.28;3.62;;;24.40;68.10;;;;;;2477675;55;20992;-71
2023/06/22 04:25:12;;;;;;;5.15;3.25;;;24.30;68.20;;;;;;2241950;56;21044;-72
2023/06/22 04:27:40;;;;;;;5.70;3.12;;;24.30;68.30;;;;;;2251493;56;20982;-72
2023/06/22 04:30:10;;;;;;;5.05;3.00;;;24.30;68.50;;;;;;2250880;56;21056;-72
2023/06/22 04:32:40;;;;;;;4.40;2.80;;;24.30;68.50;;;;;;2251357;56;20976;-70
2023/06/22 04:35:07;;;;;;;4.40;3.28;;;24.30;68.60;;;;;;2478287;55;21048;-72
2023/06/22 04:37:34;;;;;;;5.87;3.58;;;24.30;68.70;;;;;;2478687;55;20985;-71
2023/06/22 04:40:00;;;;;;;4.65;3.22;;;24.30;68.80;;;;;;2251729;56;21048;-71
2023/06/22 04:42:27;;;;;;;5.70;4.12;;;24.30;68.80;;;;;;2251425;56;21032;-72
2023/06/22 04:44:53;;;;;;;5.75;3.95;;;24.30;68.90;;;;;;2477570;55;21005;-72
2023/06/22 04:47:23;;;;;;;4.97;3.58;;;24.30;68.90;;;;;;2478371;55;21036;-72
2023/06/22 04:49:49;;;;;;;5.30;3.42;;;24.30;68.90;;;;;;2252889;56;21525;-72
2023/06/22 04:52:20;;;;;;;4.62;3.33;;;24.40;69.10;;;;;;2219356;57;22154;-72
2023/06/22 04:54:55;;;;;;;4.93;3.62;;;24.30;69.00;;;;;;2248943;56;20976;-70
2023/06/22 04:57:32;;;;;;;4.47;3.03;;;24.40;69.00;;;;;;2471818;55;21862;-72
2023/06/22 05:00:01;;;;;;;4.28;2.97;;;24.40;69.20;;;;;;2470397;55;21692;-71
2023/06/22 05:02:31;;;;;;;6.07;4.65;;;24.40;69.10;;;;;;2438477;56;20961;-72
2023/06/22 05:04:58;;;;;;;7.97;4.55;;;24.40;69.30;;;;;;2248197;56;21060;-72
2023/06/22 05:07:25;;;;;;;6.53;4.80;;;24.40;69.30;;;;;;2478190;55;21794;-72
2023/06/22 05:09:53;;;;;;;6.72;4.85;;;24.40;69.40;;;;;;2477276;55;21024;-72
2023/06/22 05:12:19;;;;;;;6.05;4.62;;;24.40;69.40;;;;;;2477537;55;21020;-71
2023/06/22 05:14:49;;;;;;;7.20;4.65;;;24.40;69.50;;;;;;2476907;55;20985;-71
2023/06/22 05:17:18;;;;;;;7.57;4.95;;;24.50;69.60;;;;;;2477896;55;20984;-71
2023/06/22 05:19:48;;;;;;;6.18;4.30;;;24.50;69.80;;;;;;2477251;55;21013;-73
2023/06/22 05:22:17;;;;;;;4.90;3.67;;;24.50;69.80;;;;;;2477995;55;20973;-73
2023/06/22 05:24:44;;;;;;;7.97;5.53;;;24.50;69.80;;;;;;2477248;55;21040;-71
2023/06/22 05:27:14;;;;;;;6.15;4.12;;;24.50;69.90;;;;;;2476975;55;20968;-71
2023/06/22 05:29:43;;;;;;;6.68;4.72;;;24.60;70.00;;;;;;2463001;55;20969;-73
2023/06/22 05:32:10;;;;;;;6.68;4.65;;;24.60;70.00;;;;;;2239351;56;21043;-70
2023/06/22 05:34:36;;;;;;;6.43;4.12;;;24.70;70.10;;;;;;2251861;56;21903;-71
2023/06/22 05:37:03;;;;;;;5.60;4.05;;;24.60;70.00;;;;;;2248347;56;20984;-72
2023/06/22 05:39:29;;;;;;;5.87;3.60;;;24.70;70.10;;;;;;2470562;55;20961;-73
2023/06/22 05:41:57;;;;;;;13.00;5.37;;;24.70;70.10;;;;;;2477297;55;20956;-71
2023/06/22 05:44:23;;;;;;;6.18;4.30;;;24.80;70.10;;;;;;2241988;56;20983;-71
2023/06/22 05:46:53;;;;;;;5.07;3.72;;;24.80;70.00;;;;;;2251135;56;21012;-71
2023/06/22 05:49:22;;;;;;;7.75;5.05;;;24.80;70.80;;;;;;2251715;56;21004;-72
2023/06/22 05:51:48;;;;;;;7.55;4.53;;;24.80;70.10;;;;;;2251249;56;20981;-70
2023/06/22 05:54:17;;;;;;;8.68;4.82;;;24.80;70.10;;;;;;2462523;55;20955;-70
2023/06/22 05:56:44;;;;;;;5.72;4.15;;;24.90;70.30;;;;;;2477720;55;20996;-70
2023/06/22 05:59:10;;;;;;;5.62;4.10;;;24.90;70.20;;;;;;2478260;55;21001;-71
2023/06/22 06:01:36;;;;;;;6.82;3.92;;;24.90;70.20;;;;;;2477855;55;20956;-71
2023/06/22 06:04:08;;;;;;;6.20;4.25;;;25.00;70.30;;;;;;2477727;55;20957;-71
2023/06/22 06:06:36;;;;;;;6.82;5.07;;;25.00;70.40;;;;;;2478630;55;20956;-71
2023/06/22 06:09:04;;;;;;;6.53;4.55;;;25.00;70.50;;;;;;2478565;55;20998;-70
2023/06/22 06:11:30;;;;;;;6.07;4.60;;;25.00;70.50;;;;;;2478700;55;21009;-72
2023/06/22 06:13:58;;;;;;;7.68;4.60;;;25.10;70.50;;;;;;2477183;55;21020;-71
2023/06/22 06:16:24;;;;;;;5.97;4.30;;;25.10;70.50;;;;;;2252627;56;21011;-72
2023/06/22 06:18:53;;;;;;;6.07;3.62;;;25.10;70.50;;;;;;2464796;55;21064;-71
2023/06/22 06:21:20;;;;;;;5.80;3.83;;;25.20;70.60;;;;;;2251542;56;20976;-72
2023/06/22 06:23:48;;;;;;;6.22;4.15;;;25.20;70.70;;;;;;2477047;55;20968;-72
2023/06/22 06:26:16;;;;;;;7.05;4.60;;;25.20;70.70;;;;;;2251037;56;21055;-73
2023/06/22 06:28:43;;;;;;;5.93;4.43;;;25.30;70.90;;;;;;2250614;56;21083;-70
2023/06/22 06:31:11;;;;;;;7.00;4.62;;;25.30;70.90;;;;;;2250813;56;20953;-71
2023/06/22 06:33:38;;;;;;;7.47;4.05;;;25.40;70.90;;;;;;2250780;56;21000;-74
2023/06/22 06:36:04;;;;;;;7.28;4.15;;;25.40;70.80;;;;;;2477902;55;20997;-74
2023/06/22 06:38:31;;;;;;;5.62;4.03;;;25.40;70.80;;;;;;2478303;55;20992;-71
2023/06/22 06:43:43;;;;;;;6.62;4.35;;;25.40;70.80;;;;;;2493788;54;22880;-75
2023/06/22 06:46:10;;;;;;;6.93;4.12;;;25.60;71.00;;;;;;2273794;55;20938;-73
2023/06/22 06:48:39;;;;;;;7.05;4.43;;;25.70;71.10;;;;;;2504774;55;20938;-73
2023/06/22 06:51:09;;;;;;;5.68;4.07;;;25.70;71.00;;;;;;2517426;54;21007;-72
2023/06/22 06:53:38;;;;;;;6.63;4.17;;;25.70;71.00;;;;;;2273201;55;20926;-75
2023/06/22 06:56:06;;;;;;;6.75;3.83;;;25.80;71.20;;;;;;2281488;55;20984;-72
2023/06/22 06:58:32;;;;;;;6.25;4.37;;;25.90;71.20;;;;;;2511191;54;20969;-72
2023/06/22 07:00:59;;;;;;;7.10;4.20;;;25.90;71.10;;;;;;2512784;54;20988;-72
2023/06/22 07:03:25;;;;;;;7.47;3.80;;;26.00;71.20;;;;;;2275891;55;20989;-73
2023/06/22 07:05:53;;;;;;;4.93;3.22;;;26.10;71.20;;;;;;2502794;55;20958;-71
2023/06/22 07:08:20;;;;;;;5.70;3.50;;;26.20;71.20;;;;;;2260567;54;20954;-74
2023/06/22 07:11:23;;;;;;;5.62;3.87;;;26.20;71.10;;;;;;2276058;55;21031;-74
2023/06/22 07:13:49;;;;;;;6.35;4.00;;;26.30;70.40;;;;;;2527806;54;20977;-72
2023/06/22 07:16:16;;;;;;;6.90;4.70;;;26.40;71.20;;;;;;2511862;54;20921;-73
2023/06/22 07:18:43;;;;;;;9.25;4.93;;;26.50;71.10;;;;;;2513484;55;20987;-71
2023/06/22 07:21:09;;;;;;;8.55;4.70;;;26.50;70.80;;;;;;2279240;55;21407;-71
2023/06/22 07:23:36;;;;;;;8.80;5.20;;;26.60;70.70;;;;;;2516225;55;20995;-72
2023/06/22 07:26:02;;;;;;;8.88;5.68;;;26.70;70.70;;;;;;2283242;55;21006;-73
2023/06/22 07:28:31;;;;;;;6.95;5.20;;;26.70;70.50;;;;;;2499517;55;21534;-75
2023/06/22 07:30:58;;;;;;;8.52;5.28;;;26.70;70.40;;;;;;2483524;55;21908;-72
2023/06/22 07:33:24;;;;;;;6.87;4.60;;;26.80;70.40;;;;;;2256633;56;21012;-71
2023/06/22 07:35:52;;;;;;;6.03;4.53;;;26.80;70.40;;;;;;2483660;55;20945;-72
2023/06/22 07:38:18;;;;;;;6.97;5.05;;;26.90;70.40;;;;;;2500203;54;21026;-74
2023/06/22 07:40:45;;;;;;;6.87;4.50;;;26.80;70.20;;;;;;2280767;55;21786;-72
2023/06/22 07:43:11;;;;;;;7.90;4.10;;;27.00;70.10;;;;;;2286899;55;20961;-72
2023/06/22 07:45:39;;;;;;;7.43;4.60;;;27.00;70.10;;;;;;2514245;54;21033;-72
2023/06/22 07:48:06;;;;;;;6.18;4.50;;;27.00;70.00;;;;;;2511309;55;20974;-73
2023/06/22 07:50:33;;;;;;;8.02;4.15;;;27.10;70.10;;;;;;2499250;54;21026;-75
2023/06/22 07:52:59;;;;;;;7.00;4.82;;;27.10;70.00;;;;;;2273070;55;21073;-72
2023/06/22 07:55:26;;;;;;;8.18;5.37;;;27.10;70.00;;;;;;2287383;55;20941;-72
2023/06/22 07:57:52;;;;;;;10.05;5.28;;;27.20;70.00;;;;;;2286494;55;21109;-72
2023/06/22 08:00:23;;;;;;;6.87;4.97;;;27.20;70.10;;;;;;2519832;55;20978;-73
2023/06/22 08:02:49;;;;;;;8.30;5.72;;;27.20;70.20;;;;;;2520616;54;21479;-72
2023/06/22 08:05:15;;;;;;;9.35;6.35;;;27.30;70.30;;;;;;2285356;55;20942;-74
2023/06/22 08:07:47;;;;;;;7.87;6.65;;;27.30;70.20;;;;;;2520506;54;21466;-74
2023/06/22 08:10:14;;;;;;;7.78;6.12;;;27.40;70.10;;;;;;2287272;55;20990;-72
2023/06/22 08:12:40;;;;;;;9.00;6.15;;;27.40;70.00;;;;;;2520751;54;21030;-72
2023/06/22 08:15:07;;;;;;;12.10;6.78;;;27.40;69.90;;;;;;2286690;54;21004;-73
2023/06/22 08:17:34;;;;;;;9.02;6.12;;;27.40;69.80;;;;;;2519147;54;21774;-73
2023/06/22 08:20:02;;;;;;;8.95;6.50;;;27.50;69.80;;;;;;2547401;54;20942;-72
2023/06/22 08:22:30;;;;;;;8.80;6.07;;;27.50;69.60;;;;;;2547816;54;21013;-73
2023/06/22 08:24:56;;;;;;;8.70;5.72;;;27.60;69.60;;;;;;2309118;55;21947;-73
2023/06/22 08:27:23;;;;;;;8.23;5.20;;;27.60;69.40;;;;;;2547638;54;20933;-72
2023/06/22 08:29:51;;;;;;;7.62;5.15;;;27.70;69.50;;;;;;2546645;54;20961;-72
2023/06/22 08:32:19;;;;;;;6.15;4.57;;;27.70;69.50;;;;;;2308895;55;20954;-72
2023/06/22 08:34:45;;;;;;;6.43;4.35;;;27.70;69.50;;;;;;2308793;55;21069;-72
2023/06/22 08:37:11;;;;;;;7.25;4.45;;;27.80;69.60;;;;;;2547600;54;21478;-74
2023/06/22 08:39:39;;;;;;;5.72;3.87;;;27.80;69.50;;;;;;2547750;54;20957;-72
2023/06/22 08:42:08;;;;;;;6.12;4.28;;;27.80;69.30;;;;;;2519913;54;20998;-73
2023/06/22 08:44:35;;;;;;;5.15;3.90;;;27.90;69.40;;;;;;2309368;55;20993;-73
2023/06/22 08:47:03;;;;;;;8.95;4.35;;;27.90;69.30;;;;;;2547507;54;20933;-75
2023/06/22 08:49:29;;;;;;;6.07;4.72;;;28.00;69.40;;;;;;2547168;53;20918;-71
2023/06/22 08:51:56;;;;;;;5.40;3.67;;;28.00;69.40;;;;;;2307504;55;20949;-72
2023/06/22 08:54:23;;;;;;;5.12;3.62;;;28.10;69.70;;;;;;2308298;55;20965;-73
2023/06/22 08:56:49;;;;;;;6.40;3.78;;;28.20;69.80;;;;;;2547138;54;21012;-73
2023/06/22 08:59:16;;;;;;;5.62;3.87;;;28.20;69.80;;;;;;2308726;55;20977;-73
2023/06/22 09:01:45;;;;;;;4.80;3.37;;;28.30;69.80;;;;;;2548650;54;20969;-73
2023/06/22 09:04:13;;;;;;;5.12;3.28;;;28.40;69.80;;;;;;2547909;54;21003;-72
2023/06/22 09:06:44;;;;;;;5.30;3.55;;;28.50;69.70;;;;;;2546959;53;20965;-73
2023/06/22 09:09:36;;;;;;;5.55;3.83;;;28.50;69.70;;;;;;2309000;55;21024;-73
2023/06/22 09:12:03;;;;;;;4.70;3.50;;;28.60;68.40;;;;;;2547718;54;21016;-73
2023/06/22 09:14:30;;;;;;;6.03;4.18;;;28.70;69.50;;;;;;2547042;54;21407;-73
2023/06/22 09:16:56;;;;;;;5.00;3.42;;;28.80;69.30;;;;;;2311321;54;21041;-73
2023/06/22 09:19:22;;;;;;;4.97;3.28;;;28.80;69.20;;;;;;2307975;55;21733;-73
2023/06/22 09:21:49;;;;;;;5.50;3.30;;;28.90;69.20;;;;;;2547332;54;20978;-72
2023/06/22 09:24:19;;;;;;;6.03;4.18;;;29.00;69.10;;;;;;2309025;55;21458;-73
2023/06/22 09:26:50;;;;;;;6.28;3.60;;;29.10;68.80;;;;;;2547243;54;20906;-75
2023/06/22 09:29:17;;;;;;;6.43;3.87;;;29.20;68.40;;;;;;2309309;55;21301;-74
2023/06/22 09:31:44;;;;;;;8.23;4.20;;;29.20;68.20;;;;;;2547183;54;20944;-73
2023/06/22 09:34:10;;;;;;;6.22;3.87;;;29.20;67.80;;;;;;2312599;55;20951;-74
2023/06/22 09:36:39;;;;;;;4.57;3.10;;;29.30;67.80;;;;;;2547319;54;20937;-73
2023/06/22 09:39:06;;;;;;;5.03;3.25;;;29.20;67.70;;;;;;2309317;55;21057;-72
2023/06/22 09:41:35;;;;;;;5.05;3.40;;;29.40;67.80;;;;;;2547767;54;20961;-73
2023/06/22 09:44:02;;;;;;;5.18;3.40;;;29.40;67.50;;;;;;2547250;53;21074;-73
2023/06/22 09:46:28;;;;;;;5.22;3.35;;;29.50;67.90;;;;;;2546618;54;21997;-73
2023/06/22 09:48:54;;;;;;;4.57;3.03;;;29.60;67.60;;;;;;2308799;55;21088;-73
2023/06/22 09:51:24;;;;;;;5.40;3.30;;;29.60;67.30;;;;;;2547981;54;21430;-73
2023/06/22 09:53:54;;;;;;;4.85;3.03;;;29.70;67.00;;;;;;2548137;54;21431;-74
2023/06/22 09:56:20;;;;;;;7.45;3.72;;;29.70;67.20;;;;;;2547952;54;21009;-73
2023/06/22 09:58:46;;;;;;;6.03;3.45;;;29.80;67.10;;;;;;2309157;55;20973;-74
2023/06/22 10:01:16;;;;;;;6.55;3.30;;;29.90;66.60;;;;;;2308687;55;20949;-75
2023/06/22 10:03:42;;;;;;;6.28;3.83;;;29.90;66.40;;;;;;2548210;54;20945;-73
2023/06/22 10:06:09;;;;;;;9.00;3.47;;;29.90;66.00;;;;;;2546875;54;20925;-73
2023/06/22 10:08:36;;;;;;;6.40;3.65;;;30.00;65.90;;;;;;2548164;53;21870;-70
2023/06/22 10:11:03;;;;;;;6.20;3.33;;;30.00;65.50;;;;;;2547940;54;20972;-73
2023/06/22 10:13:30;;;;;;;5.37;3.08;;;30.00;65.50;;;;;;2548551;54;20989;-72
2023/06/22 10:15:56;;;;;;;6.10;3.53;;;30.10;65.60;;;;;;2546186;53;21647;-73
2023/06/22 10:18:23;;;;;;;7.50;3.90;;;30.10;65.80;;;;;;2309135;55;21004;-75
2023/06/22 10:20:52;;;;;;;5.80;3.30;;;30.20;65.50;;;;;;2548146;54;21021;-74
2023/06/22 10:23:19;;;;;;;6.05;3.78;;;30.20;65.40;;;;;;2547820;54;21819;-74
2023/06/22 10:25:45;;;;;;;4.85;3.50;;;30.30;65.50;;;;;;2312414;55;20982;-74
2023/06/22 10:28:12;;;;;;;5.93;3.20;;;30.30;65.50;;;;;;2519825;54;20929;-75
2023/06/22 10:30:43;;;;;;;4.45;3.05;;;30.40;65.60;;;;;;2546762;54;20968;-73
2023/06/22 10:33:09;;;;;;;4.85;3.10;;;30.40;65.00;;;;;;2547700;53;21013;-72
2023/06/22 10:35:37;;;;;;;5.25;3.40;;;30.50;65.30;;;;;;2548221;53;21731;-72
2023/06/22 10:38:04;;;;;;;6.53;3.92;;;30.60;65.20;;;;;;2547808;54;20985;-71
2023/06/22 10:40:31;;;;;;;5.50;3.20;;;30.70;65.20;;;;;;2307353;55;21471;-71
2023/06/22 10:42:57;;;;;;;4.80;3.22;;;30.70;65.10;;;;;;2307782;55;21296;-71
2023/06/22 10:45:23;;;;;;;6.65;4.00;;;30.80;65.00;;;;;;2306958;55;21060;-71
2023/06/22 10:47:50;;;;;;;5.87;3.20;;;30.80;64.70;;;;;;2547964;54;20998;-70
2023/06/22 10:50:16;;;;;;;4.65;3.08;;;30.90;64.90;;;;;;2546373;54;20965;-72
2023/06/22 10:52:42;;;;;;;5.10;3.05;;;31.00;65.10;;;;;;2309335;55;21213;-73
2023/06/22 10:55:09;;;;;;;4.00;2.62;;;31.10;65.10;;;;;;2307108;55;21231;-73
2023/06/22 10:57:36;;;;;;;5.35;2.92;;;31.10;64.90;;;;;;2547569;54;21024;-70
2023/06/22 11:00:06;;;;;;;5.65;2.87;;;31.10;64.60;;;;;;2547058;54;21407;-71
2023/06/22 11:02:32;;;;;;;4.68;3.28;;;31.20;64.50;;;;;;2311122;55;21509;-70
2023/06/22 11:05:04;;;;;;;6.28;3.10;;;31.30;64.60;;;;;;2519165;54;21046;-71
2023/06/22 11:07:31;;;;;;;4.47;2.85;;;31.40;64.60;;;;;;2547744;54;20997;-71
2023/06/22 11:10:00;;;;;;;5.57;3.33;;;31.40;64.50;;;;;;2308923;55;21961;-70
2023/06/22 11:12:29;;;;;;;6.12;3.75;;;31.50;64.50;;;;;;2546697;54;20941;-73
2023/06/22 11:14:57;;;;;;;7.20;4.03;;;31.50;64.20;;;;;;2309268;55;22158;-72
2023/06/22 11:17:24;;;;;;;6.35;3.65;;;31.60;63.80;;;;;;2547887;53;21009;-71
2023/06/22 11:19:52;;;;;;;7.43;3.95;;;31.60;64.20;;;;;;2547554;54;20993;-70
2023/06/22 11:22:20;;;;;;;7.47;3.47;;;31.70;63.40;;;;;;2547363;54;20966;-71
2023/06/22 11:24:47;;;;;;;5.53;3.17;;;31.70;63.40;;;;;;2547770;54;20992;-71
2023/06/22 11:27:18;;;;;;;6.03;3.65;;;31.80;63.30;;;;;;2547583;54;20960;-72
2023/06/22 11:29:45;;;;;;;6.55;3.85;;;31.80;62.60;;;;;;2547797;53;20965;-72
2023/06/22 11:32:14;;;;;;;6.78;3.90;;;31.70;62.00;;;;;;2547932;53;21668;-71
2023/06/22 11:34:40;;;;;;;5.60;3.50;;;31.90;62.20;;;;;;2547013;53;20953;-71
2023/06/22 11:37:07;;;;;;;4.78;3.03;;;31.80;62.20;;;;;;2310295;55;20952;-71
2023/06/22 11:39:39;;;;;;;6.32;3.35;;;31.90;62.30;;;;;;2548448;54;21005;-70
2023/06/22 11:42:06;;;;;;;5.53;3.40;;;31.90;62.10;;;;;;2547196;54;20985;-73
2023/06/22 11:44:32;;;;;;;6.68;3.55;;;31.90;62.10;;;;;;2547676;53;21021;-71
2023/06/22 11:47:03;;;;;;;7.50;3.60;;;31.90;62.10;;;;;;2309366;55;20937;-70
2023/06/22 11:49:33;;;;;;;6.22;3.50;;;31.90;61.20;;;;;;2548533;54;20973;-71
2023/06/22 11:52:01;;;;;;;6.35;4.00;;;31.90;61.10;;;;;;2309223;55;20985;-70
2023/06/22 11:54:28;;;;;;;5.80;3.42;;;31.90;61.40;;;;;;2309242;55;20953;-70
2023/06/22 11:56:57;;;;;;;5.60;3.37;;;31.90;61.40;;;;;;2548472;54;20949;-73
2023/06/22 11:59:23;;;;;;;5.07;3.25;;;31.80;61.40;;;;;;2548022;54;20949;-72
2023/06/22 12:01:51;;;;;;;5.43;3.47;;;31.80;61.30;;;;;;2308623;55;21613;-71
2023/06/22 12:04:18;;;;;;;5.60;3.10;;;31.80;61.50;;;;;;2520004;54;21021;-74
2023/06/22 12:06:44;;;;;;;5.37;3.28;;;31.80;61.80;;;;;;2525275;54;20991;-70
2023/06/22 12:09:13;;;;;;;7.72;3.25;;;31.80;61.90;;;;;;2552392;54;20967;-74
2023/06/22 12:11:39;;;;;;;7.22;3.50;;;31.80;61.70;;;;;;2313041;56;20951;-72
2023/06/22 12:14:08;;;;;;;4.95;3.40;;;31.80;61.80;;;;;;2312868;56;21412;-73
2023/06/22 12:16:36;;;;;;;8.13;3.80;;;31.80;62.00;;;;;;2552666;54;21432;-73
2023/06/22 12:19:03;;;;;;;6.68;3.60;;;31.80;62.40;;;;;;2552620;54;20959;-72
2023/06/22 12:21:29;;;;;;;4.85;3.30;;;31.80;61.50;;;;;;2553152;54;21011;-72
2023/06/22 12:23:56;;;;;;;5.32;3.40;;;31.80;61.70;;;;;;2313626;55;21006;-74
2023/06/22 12:26:22;;;;;;;6.20;3.30;;;31.80;61.80;;;;;;2537224;54;20930;-73
2023/06/22 12:28:50;;;;;;;5.32;3.42;;;31.80;61.70;;;;;;2299626;55;20987;-72
2023/06/22 12:31:17;;;;;;;7.37;4.53;;;31.80;61.60;;;;;;2552273;54;21443;-73
2023/06/22 12:33:43;;;;;;;6.03;3.45;;;31.90;61.60;;;;;;2552618;54;21053;-73
2023/06/22 12:36:11;;;;;;;5.40;3.70;;;31.90;61.40;;;;;;2552586;54;20923;-73
2023/06/22 12:38:37;;;;;;;6.53;4.37;;;31.90;61.20;;;;;;2552737;54;20963;-73
2023/06/22 12:41:04;;;;;;;6.85;4.00;;;31.90;61.20;;;;;;2312895;56;21460;-74
2023/06/22 12:43:32;;;;;;;5.93;3.65;;;31.90;61.10;;;;;;2552755;54;20907;-74
2023/06/22 12:45:58;;;;;;;7.22;3.70;;;32.00;61.10;;;;;;2552831;54;21484;-73
2023/06/22 12:48:26;;;;;;;8.55;4.10;;;32.00;61.20;;;;;;2552526;54;21867;-72
2023/06/22 12:50:52;;;;;;;6.95;4.00;;;32.00;61.10;;;;;;2553069;54;20983;-72
2023/06/22 12:53:19;;;;;;;7.65;3.95;;;32.00;61.20;;;;;;2552025;54;21469;-72
2023/06/22 12:55:46;;;;;;;5.95;3.80;;;32.10;61.30;;;;;;2553024;54;21470;-72
2023/06/22 12:58:12;;;;;;;6.78;4.12;;;32.10;61.30;;;;;;2552092;54;20971;-72
2023/06/22 13:00:39;;;;;;;5.53;4.00;;;32.10;61.20;;;;;;2552482;54;20943;-73